sensor_id;sensor_type;location;lat;lon;timestamp;P1;durP1;ratioP1;P2;durP2;ratioP2
63807;SDS011;49961;43.970;22.868;2023-04-25T00:00:20;16.53;;;14.73;;
63807;SDS011;49961;43.970;22.868;2023-04-25T00:01:21;18.00;;;14.17;;
63807;SDS011;49961;43.970;22.868;2023-04-25T00:02:21;15.77;;;14.17;;
63807;SDS011;49961;43.970;22.868;2023-04-25T00:03:22;16.30;;;13.33;;
63807;SDS011;49961;43.970;22.868;2023-04-25T00:04:25;19.83;;;14.67;;
63807;SDS011;49961;43.970;22.868;2023-04-25T00:05:27;17.37;;;14.00;;
63807;SDS011;49961;43.970;22.868;2023-04-25T00:06:29;19.23;;;13.90;;
63807;SDS011;49961;43.970;22.868;2023-04-25T00:07:31;15.23;;;13.73;;
63807;SDS011;49961;43.970;22.868;2023-04-25T00:08:33;16.07;;;14.33;;
63807;SDS011;49961;43.970;22.868;2023-04-25T00:09:34;17.63;;;14.07;;
63807;SDS011;49961;43.970;22.868;2023-04-25T00:10:34;15.77;;;14.27;;
63807;SDS011;49961;43.970;22.868;2023-04-25T00:11:35;16.67;;;14.00;;
63807;SDS011;49961;43.970;22.868;2023-04-25T00:12:35;21.30;;;14.73;;
63807;SDS011;49961;43.970;22.868;2023-04-25T00:13:36;17.90;;;14.43;;
63807;SDS011;49961;43.970;22.868;2023-04-25T00:14:36;15.83;;;14.27;;
63807;SDS011;49961;43.970;22.868;2023-04-25T00:15:36;16.70;;;15.00;;
63807;SDS011;49961;43.970;22.868;2023-04-25T00:16:38;16.87;;;14.47;;
63807;SDS011;49961;43.970;22.868;2023-04-25T00:17:38;16.30;;;14.60;;
63807;SDS011;49961;43.970;22.868;2023-04-25T00:18:39;17.13;;;14.63;;
63807;SDS011;49961;43.970;22.868;2023-04-25T00:19:40;18.20;;;15.20;;
63807;SDS011;49961;43.970;22.868;2023-04-25T00:20:41;16.20;;;13.90;;
63807;SDS011;49961;43.970;22.868;2023-04-25T00:21:46;15.90;;;14.30;;
63807;SDS011;49961;43.970;22.868;2023-04-25T00:22:46;16.90;;;14.27;;
63807;SDS011;49961;43.970;22.868;2023-04-25T00:23:47;15.80;;;14.13;;
63807;SDS011;49961;43.970;22.868;2023-04-25T00:24:48;16.07;;;14.53;;
63807;SDS011;49961;43.970;22.868;2023-04-25T00:25:49;15.83;;;14.13;;
63807;SDS011;49961;43.970;22.868;2023-04-25T00:26:49;16.63;;;14.87;;
63807;SDS011;49961;43.970;22.868;2023-04-25T00:27:50;16.73;;;15.17;;
63807;SDS011;49961;43.970;22.868;2023-04-25T00:28:50;17.00;;;15.30;;
63807;SDS011;49961;43.970;22.868;2023-04-25T00:29:51;16.43;;;14.93;;
63807;SDS011;49961;43.970;22.868;2023-04-25T00:30:51;16.40;;;14.80;;
63807;SDS011;49961;43.970;22.868;2023-04-25T00:31:52;16.97;;;15.13;;
63807;SDS011;49961;43.970;22.868;2023-04-25T00:32:52;15.67;;;14.20;;
63807;SDS011;49961;43.970;22.868;2023-04-25T00:33:53;16.60;;;14.90;;
63807;SDS011;49961;43.970;22.868;2023-04-25T00:34:54;15.93;;;14.53;;
63807;SDS011;49961;43.970;22.868;2023-04-25T00:35:55;15.97;;;14.47;;
63807;SDS011;49961;43.970;22.868;2023-04-25T00:36:56;17.50;;;15.70;;
63807;SDS011;49961;43.970;22.868;2023-04-25T00:37:56;16.87;;;15.17;;
63807;SDS011;49961;43.970;22.868;2023-04-25T00:38:57;17.37;;;15.57;;
63807;SDS011;49961;43.970;22.868;2023-04-25T00:39:58;17.03;;;15.43;;
63807;SDS011;49961;43.970;22.868;2023-04-25T00:40:58;17.10;;;15.47;;
63807;SDS011;49961;43.970;22.868;2023-04-25T00:41:59;16.73;;;15.13;;
63807;SDS011;49961;43.970;22.868;2023-04-25T00:43:00;16.80;;;15.20;;
63807;SDS011;49961;43.970;22.868;2023-04-25T00:44:01;16.90;;;14.33;;
63807;SDS011;49961;43.970;22.868;2023-04-25T00:45:04;16.30;;;14.77;;
63807;SDS011;49961;43.970;22.868;2023-04-25T00:46:07;16.37;;;14.70;;
63807;SDS011;49961;43.970;22.868;2023-04-25T00:47:07;17.00;;;15.30;;
63807;SDS011;49961;43.970;22.868;2023-04-25T00:48:08;15.87;;;14.47;;
63807;SDS011;49961;43.970;22.868;2023-04-25T00:49:09;16.70;;;15.03;;
63807;SDS011;49961;43.970;22.868;2023-04-25T00:50:15;16.77;;;14.93;;
63807;SDS011;49961;43.970;22.868;2023-04-25T00:51:16;16.80;;;15.20;;
63807;SDS011;49961;43.970;22.868;2023-04-25T00:52:20;16.93;;;15.23;;
63807;SDS011;49961;43.970;22.868;2023-04-25T00:53:21;17.07;;;15.30;;
63807;SDS011;49961;43.970;22.868;2023-04-25T00:54:22;17.40;;;15.80;;
63807;SDS011;49961;43.970;22.868;2023-04-25T00:55:22;17.10;;;15.50;;
63807;SDS011;49961;43.970;22.868;2023-04-25T00:56:23;16.70;;;15.00;;
63807;SDS011;49961;43.970;22.868;2023-04-25T00:57:23;18.07;;;15.40;;
63807;SDS011;49961;43.970;22.868;2023-04-25T00:58:24;16.93;;;15.20;;
63807;SDS011;49961;43.970;22.868;2023-04-25T00:59:25;15.77;;;14.30;;
63807;SDS011;49961;43.970;22.868;2023-04-25T01:00:25;16.30;;;14.70;;
63807;SDS011;49961;43.970;22.868;2023-04-25T01:01:26;15.93;;;14.37;;
63807;SDS011;49961;43.970;22.868;2023-04-25T01:02:27;15.33;;;13.83;;
63807;SDS011;49961;43.970;22.868;2023-04-25T01:03:29;14.87;;;13.37;;
63807;SDS011;49961;43.970;22.868;2023-04-25T01:04:32;16.03;;;14.17;;
63807;SDS011;49961;43.970;22.868;2023-04-25T01:05:33;16.53;;;14.67;;
63807;SDS011;49961;43.970;22.868;2023-04-25T01:06:33;16.77;;;15.10;;
63807;SDS011;49961;43.970;22.868;2023-04-25T01:07:34;15.67;;;14.07;;
63807;SDS011;49961;43.970;22.868;2023-04-25T01:08:36;15.60;;;14.10;;
63807;SDS011;49961;43.970;22.868;2023-04-25T01:09:38;15.50;;;13.80;;
63807;SDS011;49961;43.970;22.868;2023-04-25T01:10:38;15.20;;;13.70;;
63807;SDS011;49961;43.970;22.868;2023-04-25T01:11:39;18.13;;;13.20;;
63807;SDS011;49961;43.970;22.868;2023-04-25T01:12:40;16.37;;;13.83;;
63807;SDS011;49961;43.970;22.868;2023-04-25T01:13:41;14.77;;;13.47;;
63807;SDS011;49961;43.970;22.868;2023-04-25T01:14:41;15.13;;;13.73;;
63807;SDS011;49961;43.970;22.868;2023-04-25T01:15:41;14.30;;;12.87;;
63807;SDS011;49961;43.970;22.868;2023-04-25T01:16:42;15.30;;;13.80;;
63807;SDS011;49961;43.970;22.868;2023-04-25T01:17:42;15.80;;;14.30;;
63807;SDS011;49961;43.970;22.868;2023-04-25T01:18:44;15.67;;;14.07;;
63807;SDS011;49961;43.970;22.868;2023-04-25T01:19:45;15.53;;;14.13;;
63807;SDS011;49961;43.970;22.868;2023-04-25T01:20:48;15.10;;;13.67;;
63807;SDS011;49961;43.970;22.868;2023-04-25T01:21:51;15.13;;;13.73;;
63807;SDS011;49961;43.970;22.868;2023-04-25T01:22:52;16.70;;;14.77;;
63807;SDS011;49961;43.970;22.868;2023-04-25T01:23:52;16.13;;;14.37;;
63807;SDS011;49961;43.970;22.868;2023-04-25T01:24:54;16.20;;;14.60;;
63807;SDS011;49961;43.970;22.868;2023-04-25T01:25:54;17.73;;;15.93;;
63807;SDS011;49961;43.970;22.868;2023-04-25T01:26:55;18.90;;;15.67;;
63807;SDS011;49961;43.970;22.868;2023-04-25T01:27:56;17.13;;;15.47;;
63807;SDS011;49961;43.970;22.868;2023-04-25T01:28:58;16.03;;;14.50;;
63807;SDS011;49961;43.970;22.868;2023-04-25T01:29:59;17.27;;;15.47;;
63807;SDS011;49961;43.970;22.868;2023-04-25T01:31:00;17.07;;;15.33;;
63807;SDS011;49961;43.970;22.868;2023-04-25T01:32:01;19.37;;;15.90;;
63807;SDS011;49961;43.970;22.868;2023-04-25T01:33:03;15.73;;;14.33;;
63807;SDS011;49961;43.970;22.868;2023-04-25T01:34:05;16.33;;;13.53;;
63807;SDS011;49961;43.970;22.868;2023-04-25T01:35:05;14.93;;;12.53;;
63807;SDS011;49961;43.970;22.868;2023-04-25T01:36:09;15.77;;;14.37;;
63807;SDS011;49961;43.970;22.868;2023-04-25T01:37:09;16.93;;;15.23;;
63807;SDS011;49961;43.970;22.868;2023-04-25T01:38:11;17.73;;;15.10;;
63807;SDS011;49961;43.970;22.868;2023-04-25T01:39:12;17.17;;;15.47;;
63807;SDS011;49961;43.970;22.868;2023-04-25T01:40:13;15.63;;;14.10;;
63807;SDS011;49961;43.970;22.868;2023-04-25T01:41:14;17.03;;;14.70;;
63807;SDS011;49961;43.970;22.868;2023-04-25T01:42:14;16.60;;;14.40;;
63807;SDS011;49961;43.970;22.868;2023-04-25T01:43:15;16.50;;;14.10;;
63807;SDS011;49961;43.970;22.868;2023-04-25T01:44:16;14.37;;;12.83;;
63807;SDS011;49961;43.970;22.868;2023-04-25T01:45:16;17.90;;;14.97;;
63807;SDS011;49961;43.970;22.868;2023-04-25T01:46:17;16.80;;;15.20;;
63807;SDS011;49961;43.970;22.868;2023-04-25T01:47:18;16.03;;;14.40;;
63807;SDS011;49961;43.970;22.868;2023-04-25T01:48:18;15.23;;;13.60;;
63807;SDS011;49961;43.970;22.868;2023-04-25T01:49:19;15.33;;;13.80;;
63807;SDS011;49961;43.970;22.868;2023-04-25T01:50:19;15.63;;;13.90;;
63807;SDS011;49961;43.970;22.868;2023-04-25T01:51:20;15.80;;;14.20;;
63807;SDS011;49961;43.970;22.868;2023-04-25T01:52:20;15.17;;;13.77;;
63807;SDS011;49961;43.970;22.868;2023-04-25T01:53:21;15.17;;;13.63;;
63807;SDS011;49961;43.970;22.868;2023-04-25T01:54:22;16.60;;;13.57;;
63807;SDS011;49961;43.970;22.868;2023-04-25T01:55:23;14.87;;;13.27;;
63807;SDS011;49961;43.970;22.868;2023-04-25T01:56:23;14.53;;;13.07;;
63807;SDS011;49961;43.970;22.868;2023-04-25T01:57:23;15.23;;;13.67;;
63807;SDS011;49961;43.970;22.868;2023-04-25T01:58:24;15.33;;;13.77;;
63807;SDS011;49961;43.970;22.868;2023-04-25T01:59:25;15.93;;;14.33;;
63807;SDS011;49961;43.970;22.868;2023-04-25T02:00:25;16.50;;;14.80;;
63807;SDS011;49961;43.970;22.868;2023-04-25T02:01:25;16.77;;;14.60;;
63807;SDS011;49961;43.970;22.868;2023-04-25T02:02:26;15.67;;;14.17;;
63807;SDS011;49961;43.970;22.868;2023-04-25T02:03:27;16.60;;;14.87;;
63807;SDS011;49961;43.970;22.868;2023-04-25T02:04:27;16.20;;;14.13;;
63807;SDS011;49961;43.970;22.868;2023-04-25T02:05:27;17.20;;;14.00;;
63807;SDS011;49961;43.970;22.868;2023-04-25T02:06:28;16.57;;;14.60;;
63807;SDS011;49961;43.970;22.868;2023-04-25T02:07:30;17.80;;;15.13;;
63807;SDS011;49961;43.970;22.868;2023-04-25T02:08:32;18.07;;;14.93;;
63807;SDS011;49961;43.970;22.868;2023-04-25T02:09:32;16.03;;;14.43;;
63807;SDS011;49961;43.970;22.868;2023-04-25T02:10:33;19.77;;;14.53;;
63807;SDS011;49961;43.970;22.868;2023-04-25T02:11:34;16.73;;;15.07;;
63807;SDS011;49961;43.970;22.868;2023-04-25T02:12:35;16.93;;;15.13;;
63807;SDS011;49961;43.970;22.868;2023-04-25T02:13:36;17.37;;;15.33;;
63807;SDS011;49961;43.970;22.868;2023-04-25T02:14:36;17.47;;;15.53;;
63807;SDS011;49961;43.970;22.868;2023-04-25T02:15:37;16.07;;;14.30;;
63807;SDS011;49961;43.970;22.868;2023-04-25T02:16:37;16.13;;;14.53;;
63807;SDS011;49961;43.970;22.868;2023-04-25T02:17:38;16.20;;;14.30;;
63807;SDS011;49961;43.970;22.868;2023-04-25T02:18:39;17.53;;;15.27;;
63807;SDS011;49961;43.970;22.868;2023-04-25T02:19:39;16.17;;;14.60;;
63807;SDS011;49961;43.970;22.868;2023-04-25T02:20:40;16.83;;;14.80;;
63807;SDS011;49961;43.970;22.868;2023-04-25T02:21:40;17.23;;;15.00;;
63807;SDS011;49961;43.970;22.868;2023-04-25T02:22:40;18.33;;;14.97;;
63807;SDS011;49961;43.970;22.868;2023-04-25T02:23:41;18.10;;;14.70;;
63807;SDS011;49961;43.970;22.868;2023-04-25T02:24:42;16.73;;;15.03;;
63807;SDS011;49961;43.970;22.868;2023-04-25T02:25:42;16.07;;;14.37;;
63807;SDS011;49961;43.970;22.868;2023-04-25T02:26:43;17.27;;;14.67;;
63807;SDS011;49961;43.970;22.868;2023-04-25T02:27:44;16.37;;;14.67;;
63807;SDS011;49961;43.970;22.868;2023-04-25T02:28:44;16.17;;;14.47;;
63807;SDS011;49961;43.970;22.868;2023-04-25T02:29:45;15.87;;;13.87;;
63807;SDS011;49961;43.970;22.868;2023-04-25T02:30:45;16.67;;;14.97;;
63807;SDS011;49961;43.970;22.868;2023-04-25T02:31:45;19.70;;;14.90;;
63807;SDS011;49961;43.970;22.868;2023-04-25T02:32:46;17.23;;;14.93;;
63807;SDS011;49961;43.970;22.868;2023-04-25T02:33:46;18.27;;;14.60;;
63807;SDS011;49961;43.970;22.868;2023-04-25T02:34:47;18.97;;;14.20;;
63807;SDS011;49961;43.970;22.868;2023-04-25T02:35:48;16.60;;;14.80;;
63807;SDS011;49961;43.970;22.868;2023-04-25T02:36:48;15.83;;;14.23;;
63807;SDS011;49961;43.970;22.868;2023-04-25T02:37:52;17.10;;;15.30;;
63807;SDS011;49961;43.970;22.868;2023-04-25T02:38:52;18.90;;;15.27;;
63807;SDS011;49961;43.970;22.868;2023-04-25T02:39:53;15.70;;;14.10;;
63807;SDS011;49961;43.970;22.868;2023-04-25T02:40:53;16.33;;;14.50;;
63807;SDS011;49961;43.970;22.868;2023-04-25T02:41:54;15.70;;;14.10;;
63807;SDS011;49961;43.970;22.868;2023-04-25T02:42:54;16.67;;;13.70;;
63807;SDS011;49961;43.970;22.868;2023-04-25T02:43:54;15.43;;;13.77;;
63807;SDS011;49961;43.970;22.868;2023-04-25T02:44:55;18.80;;;14.13;;
63807;SDS011;49961;43.970;22.868;2023-04-25T02:45:55;15.60;;;13.70;;
63807;SDS011;49961;43.970;22.868;2023-04-25T02:46:56;17.20;;;14.40;;
63807;SDS011;49961;43.970;22.868;2023-04-25T02:47:56;19.73;;;14.03;;
63807;SDS011;49961;43.970;22.868;2023-04-25T02:48:57;21.00;;;13.87;;
63807;SDS011;49961;43.970;22.868;2023-04-25T02:49:57;20.03;;;13.23;;
63807;SDS011;49961;43.970;22.868;2023-04-25T02:50:57;16.43;;;13.90;;
63807;SDS011;49961;43.970;22.868;2023-04-25T02:51:58;20.30;;;13.87;;
63807;SDS011;49961;43.970;22.868;2023-04-25T02:52:58;16.60;;;15.00;;
63807;SDS011;49961;43.970;22.868;2023-04-25T02:53:59;16.17;;;14.57;;
63807;SDS011;49961;43.970;22.868;2023-04-25T02:54:59;17.37;;;15.67;;
63807;SDS011;49961;43.970;22.868;2023-04-25T02:56:00;18.43;;;15.50;;
63807;SDS011;49961;43.970;22.868;2023-04-25T02:57:00;18.33;;;15.77;;
63807;SDS011;49961;43.970;22.868;2023-04-25T02:58:02;17.20;;;15.30;;
63807;SDS011;49961;43.970;22.868;2023-04-25T02:59:03;15.90;;;14.30;;
63807;SDS011;49961;43.970;22.868;2023-04-25T03:00:03;15.57;;;14.07;;
63807;SDS011;49961;43.970;22.868;2023-04-25T03:01:05;17.47;;;15.00;;
63807;SDS011;49961;43.970;22.868;2023-04-25T03:02:05;15.73;;;14.13;;
63807;SDS011;49961;43.970;22.868;2023-04-25T03:03:06;18.40;;;14.53;;
63807;SDS011;49961;43.970;22.868;2023-04-25T03:04:06;16.03;;;14.03;;
63807;SDS011;49961;43.970;22.868;2023-04-25T03:05:06;16.27;;;14.57;;
63807;SDS011;49961;43.970;22.868;2023-04-25T03:06:07;16.47;;;14.77;;
63807;SDS011;49961;43.970;22.868;2023-04-25T03:07:07;16.00;;;14.30;;
63807;SDS011;49961;43.970;22.868;2023-04-25T03:08:08;19.37;;;14.87;;
63807;SDS011;49961;43.970;22.868;2023-04-25T03:09:08;19.40;;;15.57;;
63807;SDS011;49961;43.970;22.868;2023-04-25T03:10:09;17.87;;;15.97;;
63807;SDS011;49961;43.970;22.868;2023-04-25T03:11:10;17.07;;;14.57;;
63807;SDS011;49961;43.970;22.868;2023-04-25T03:12:11;16.57;;;14.73;;
63807;SDS011;49961;43.970;22.868;2023-04-25T03:13:11;16.30;;;14.60;;
63807;SDS011;49961;43.970;22.868;2023-04-25T03:14:12;18.60;;;15.80;;
63807;SDS011;49961;43.970;22.868;2023-04-25T03:15:13;19.97;;;14.60;;
63807;SDS011;49961;43.970;22.868;2023-04-25T03:16:13;17.33;;;14.63;;
63807;SDS011;49961;43.970;22.868;2023-04-25T03:17:14;19.87;;;13.80;;
63807;SDS011;49961;43.970;22.868;2023-04-25T03:18:15;16.70;;;14.40;;
63807;SDS011;49961;43.970;22.868;2023-04-25T03:19:15;18.93;;;13.93;;
63807;SDS011;49961;43.970;22.868;2023-04-25T03:20:18;15.77;;;14.30;;
63807;SDS011;49961;43.970;22.868;2023-04-25T03:21:19;17.03;;;14.13;;
63807;SDS011;49961;43.970;22.868;2023-04-25T03:22:19;18.53;;;14.17;;
63807;SDS011;49961;43.970;22.868;2023-04-25T03:23:20;16.60;;;14.10;;
63807;SDS011;49961;43.970;22.868;2023-04-25T03:24:20;18.67;;;15.20;;
63807;SDS011;49961;43.970;22.868;2023-04-25T03:25:21;16.63;;;14.90;;
63807;SDS011;49961;43.970;22.868;2023-04-25T03:26:22;18.63;;;16.17;;
63807;SDS011;49961;43.970;22.868;2023-04-25T03:27:22;15.83;;;14.27;;
63807;SDS011;49961;43.970;22.868;2023-04-25T03:28:23;16.93;;;15.30;;
63807;SDS011;49961;43.970;22.868;2023-04-25T03:29:23;17.63;;;15.77;;
63807;SDS011;49961;43.970;22.868;2023-04-25T03:30:26;17.33;;;15.63;;
63807;SDS011;49961;43.970;22.868;2023-04-25T03:31:26;18.00;;;16.10;;
63807;SDS011;49961;43.970;22.868;2023-04-25T03:32:27;21.73;;;16.63;;
63807;SDS011;49961;43.970;22.868;2023-04-25T03:33:27;18.97;;;16.03;;
63807;SDS011;49961;43.970;22.868;2023-04-25T03:34:28;17.90;;;15.93;;
63807;SDS011;49961;43.970;22.868;2023-04-25T03:35:28;18.77;;;14.83;;
63807;SDS011;49961;43.970;22.868;2023-04-25T03:36:28;19.23;;;14.97;;
63807;SDS011;49961;43.970;22.868;2023-04-25T03:37:29;17.93;;;14.97;;
63807;SDS011;49961;43.970;22.868;2023-04-25T03:38:29;20.40;;;14.77;;
63807;SDS011;49961;43.970;22.868;2023-04-25T03:39:30;20.97;;;14.70;;
63807;SDS011;49961;43.970;22.868;2023-04-25T03:40:31;19.57;;;15.23;;
63807;SDS011;49961;43.970;22.868;2023-04-25T03:41:31;16.50;;;14.10;;
63807;SDS011;49961;43.970;22.868;2023-04-25T03:42:32;21.60;;;13.50;;
63807;SDS011;49961;43.970;22.868;2023-04-25T03:43:32;15.37;;;13.33;;
63807;SDS011;49961;43.970;22.868;2023-04-25T03:44:33;16.53;;;13.77;;
63807;SDS011;49961;43.970;22.868;2023-04-25T03:45:33;15.70;;;14.17;;
63807;SDS011;49961;43.970;22.868;2023-04-25T03:46:34;15.73;;;14.03;;
63807;SDS011;49961;43.970;22.868;2023-04-25T03:47:34;16.10;;;14.40;;
63807;SDS011;49961;43.970;22.868;2023-04-25T03:48:35;16.23;;;14.77;;
63807;SDS011;49961;43.970;22.868;2023-04-25T03:49:35;16.03;;;14.43;;
63807;SDS011;49961;43.970;22.868;2023-04-25T03:50:36;16.77;;;14.93;;
63807;SDS011;49961;43.970;22.868;2023-04-25T03:51:37;17.50;;;14.33;;
63807;SDS011;49961;43.970;22.868;2023-04-25T03:52:37;17.73;;;14.33;;
63807;SDS011;49961;43.970;22.868;2023-04-25T03:53:38;15.47;;;13.77;;
63807;SDS011;49961;43.970;22.868;2023-04-25T03:54:38;15.90;;;14.30;;
63807;SDS011;49961;43.970;22.868;2023-04-25T03:55:38;15.57;;;13.97;;
63807;SDS011;49961;43.970;22.868;2023-04-25T03:56:39;17.57;;;15.30;;
63807;SDS011;49961;43.970;22.868;2023-04-25T03:57:39;16.10;;;14.07;;
63807;SDS011;49961;43.970;22.868;2023-04-25T03:58:40;15.63;;;14.03;;
63807;SDS011;49961;43.970;22.868;2023-04-25T03:59:40;15.80;;;14.10;;
63807;SDS011;49961;43.970;22.868;2023-04-25T04:00:40;17.00;;;15.17;;
63807;SDS011;49961;43.970;22.868;2023-04-25T04:01:41;16.90;;;15.30;;
63807;SDS011;49961;43.970;22.868;2023-04-25T04:02:41;17.33;;;15.60;;
63807;SDS011;49961;43.970;22.868;2023-04-25T04:03:42;16.63;;;15.03;;
63807;SDS011;49961;43.970;22.868;2023-04-25T04:04:42;19.17;;;16.17;;
63807;SDS011;49961;43.970;22.868;2023-04-25T04:05:44;16.90;;;15.10;;
63807;SDS011;49961;43.970;22.868;2023-04-25T04:06:45;16.80;;;15.00;;
63807;SDS011;49961;43.970;22.868;2023-04-25T04:07:45;17.97;;;15.07;;
63807;SDS011;49961;43.970;22.868;2023-04-25T04:08:46;17.50;;;15.70;;
63807;SDS011;49961;43.970;22.868;2023-04-25T04:09:47;18.13;;;15.67;;
63807;SDS011;49961;43.970;22.868;2023-04-25T04:10:47;16.50;;;14.90;;
63807;SDS011;49961;43.970;22.868;2023-04-25T04:11:48;16.30;;;14.60;;
63807;SDS011;49961;43.970;22.868;2023-04-25T04:12:48;16.53;;;14.83;;
63807;SDS011;49961;43.970;22.868;2023-04-25T04:13:48;18.50;;;15.17;;
63807;SDS011;49961;43.970;22.868;2023-04-25T04:14:49;20.70;;;14.77;;
63807;SDS011;49961;43.970;22.868;2023-04-25T04:15:49;19.80;;;15.80;;
63807;SDS011;49961;43.970;22.868;2023-04-25T04:16:51;17.27;;;15.13;;
63807;SDS011;49961;43.970;22.868;2023-04-25T04:17:51;16.13;;;14.50;;
63807;SDS011;49961;43.970;22.868;2023-04-25T04:18:52;18.97;;;15.53;;
63807;SDS011;49961;43.970;22.868;2023-04-25T04:19:52;16.60;;;14.80;;
63807;SDS011;49961;43.970;22.868;2023-04-25T04:20:53;15.57;;;14.03;;
63807;SDS011;49961;43.970;22.868;2023-04-25T04:21:53;16.23;;;14.57;;
63807;SDS011;49961;43.970;22.868;2023-04-25T04:22:54;15.60;;;14.03;;
63807;SDS011;49961;43.970;22.868;2023-04-25T04:23:54;15.47;;;13.90;;
63807;SDS011;49961;43.970;22.868;2023-04-25T04:24:54;15.13;;;13.73;;
63807;SDS011;49961;43.970;22.868;2023-04-25T04:25:56;15.47;;;14.07;;
63807;SDS011;49961;43.970;22.868;2023-04-25T04:26:57;16.27;;;14.63;;
63807;SDS011;49961;43.970;22.868;2023-04-25T04:27:57;16.60;;;15.00;;
63807;SDS011;49961;43.970;22.868;2023-04-25T04:28:58;16.47;;;14.90;;
63807;SDS011;49961;43.970;22.868;2023-04-25T04:29:59;16.43;;;14.73;;
63807;SDS011;49961;43.970;22.868;2023-04-25T04:31:00;15.77;;;14.20;;
63807;SDS011;49961;43.970;22.868;2023-04-25T04:32:00;16.47;;;14.87;;
63807;SDS011;49961;43.970;22.868;2023-04-25T04:33:01;16.43;;;14.53;;
63807;SDS011;49961;43.970;22.868;2023-04-25T04:34:02;17.13;;;15.53;;
63807;SDS011;49961;43.970;22.868;2023-04-25T04:35:03;18.23;;;16.33;;
63807;SDS011;49961;43.970;22.868;2023-04-25T04:36:06;17.33;;;15.53;;
63807;SDS011;49961;43.970;22.868;2023-04-25T04:37:07;18.57;;;16.77;;
63807;SDS011;49961;43.970;22.868;2023-04-25T04:38:08;17.40;;;15.53;;
63807;SDS011;49961;43.970;22.868;2023-04-25T04:39:08;16.53;;;14.73;;
63807;SDS011;49961;43.970;22.868;2023-04-25T04:40:09;17.13;;;15.37;;
63807;SDS011;49961;43.970;22.868;2023-04-25T04:41:10;19.40;;;17.33;;
63807;SDS011;49961;43.970;22.868;2023-04-25T04:42:10;19.77;;;17.60;;
63807;SDS011;49961;43.970;22.868;2023-04-25T04:43:12;19.10;;;17.20;;
63807;SDS011;49961;43.970;22.868;2023-04-25T04:44:13;22.10;;;18.50;;
63807;SDS011;49961;43.970;22.868;2023-04-25T04:45:14;19.20;;;17.30;;
63807;SDS011;49961;43.970;22.868;2023-04-25T04:46:14;21.07;;;17.63;;
63807;SDS011;49961;43.970;22.868;2023-04-25T04:47:16;18.93;;;16.43;;
63807;SDS011;49961;43.970;22.868;2023-04-25T04:48:16;19.20;;;16.77;;
63807;SDS011;49961;43.970;22.868;2023-04-25T04:49:17;19.60;;;15.63;;
63807;SDS011;49961;43.970;22.868;2023-04-25T04:50:17;17.57;;;15.73;;
63807;SDS011;49961;43.970;22.868;2023-04-25T04:51:18;16.80;;;15.07;;
63807;SDS011;49961;43.970;22.868;2023-04-25T04:52:18;18.23;;;16.43;;
63807;SDS011;49961;43.970;22.868;2023-04-25T04:53:19;17.27;;;15.47;;
63807;SDS011;49961;43.970;22.868;2023-04-25T04:54:19;17.17;;;15.33;;
63807;SDS011;49961;43.970;22.868;2023-04-25T04:55:20;20.67;;;17.73;;
63807;SDS011;49961;43.970;22.868;2023-04-25T04:56:20;17.27;;;15.67;;
63807;SDS011;49961;43.970;22.868;2023-04-25T04:57:23;16.57;;;14.80;;
63807;SDS011;49961;43.970;22.868;2023-04-25T04:58:23;17.93;;;15.97;;
63807;SDS011;49961;43.970;22.868;2023-04-25T04:59:24;17.53;;;15.60;;
63807;SDS011;49961;43.970;22.868;2023-04-25T05:00:24;16.10;;;14.37;;
63807;SDS011;49961;43.970;22.868;2023-04-25T05:01:25;16.17;;;14.50;;
63807;SDS011;49961;43.970;22.868;2023-04-25T05:02:26;17.07;;;13.70;;
63807;SDS011;49961;43.970;22.868;2023-04-25T05:03:26;14.80;;;13.30;;
63807;SDS011;49961;43.970;22.868;2023-04-25T05:04:27;14.60;;;13.10;;
63807;SDS011;49961;43.970;22.868;2023-04-25T05:05:27;14.70;;;13.30;;
63807;SDS011;49961;43.970;22.868;2023-04-25T05:06:28;15.17;;;13.67;;
63807;SDS011;49961;43.970;22.868;2023-04-25T05:07:32;14.80;;;13.40;;
63807;SDS011;49961;43.970;22.868;2023-04-25T05:08:32;16.57;;;14.30;;
63807;SDS011;49961;43.970;22.868;2023-04-25T05:09:32;15.13;;;13.73;;
63807;SDS011;49961;43.970;22.868;2023-04-25T05:10:33;15.50;;;14.00;;
63807;SDS011;49961;43.970;22.868;2023-04-25T05:11:33;18.47;;;14.77;;
63807;SDS011;49961;43.970;22.868;2023-04-25T05:12:34;16.40;;;14.70;;
63807;SDS011;49961;43.970;22.868;2023-04-25T05:13:34;17.00;;;15.27;;
63807;SDS011;49961;43.970;22.868;2023-04-25T05:14:35;15.67;;;14.07;;
63807;SDS011;49961;43.970;22.868;2023-04-25T05:15:35;16.30;;;14.80;;
63807;SDS011;49961;43.970;22.868;2023-04-25T05:16:35;16.87;;;15.27;;
63807;SDS011;49961;43.970;22.868;2023-04-25T05:17:36;16.13;;;14.47;;
63807;SDS011;49961;43.970;22.868;2023-04-25T05:18:37;16.57;;;14.90;;
63807;SDS011;49961;43.970;22.868;2023-04-25T05:19:38;15.80;;;14.23;;
63807;SDS011;49961;43.970;22.868;2023-04-25T05:20:39;17.37;;;14.37;;
63807;SDS011;49961;43.970;22.868;2023-04-25T05:21:39;15.50;;;14.00;;
63807;SDS011;49961;43.970;22.868;2023-04-25T05:22:40;16.60;;;14.83;;
63807;SDS011;49961;43.970;22.868;2023-04-25T05:23:41;15.70;;;13.83;;
63807;SDS011;49961;43.970;22.868;2023-04-25T05:24:42;16.37;;;14.77;;
63807;SDS011;49961;43.970;22.868;2023-04-25T05:25:42;15.20;;;13.73;;
63807;SDS011;49961;43.970;22.868;2023-04-25T05:26:42;15.23;;;13.83;;
63807;SDS011;49961;43.970;22.868;2023-04-25T05:27:43;14.80;;;13.50;;
63807;SDS011;49961;43.970;22.868;2023-04-25T05:28:43;15.73;;;14.23;;
63807;SDS011;49961;43.970;22.868;2023-04-25T05:29:44;14.53;;;12.93;;
63807;SDS011;49961;43.970;22.868;2023-04-25T05:30:44;14.40;;;13.00;;
63807;SDS011;49961;43.970;22.868;2023-04-25T05:31:45;14.10;;;12.80;;
63807;SDS011;49961;43.970;22.868;2023-04-25T05:32:45;14.67;;;13.20;;
63807;SDS011;49961;43.970;22.868;2023-04-25T05:33:46;14.03;;;12.70;;
63807;SDS011;49961;43.970;22.868;2023-04-25T05:34:47;14.23;;;12.73;;
63807;SDS011;49961;43.970;22.868;2023-04-25T05:35:47;14.20;;;12.90;;
63807;SDS011;49961;43.970;22.868;2023-04-25T05:36:48;14.63;;;13.13;;
63807;SDS011;49961;43.970;22.868;2023-04-25T05:37:48;14.77;;;13.27;;
63807;SDS011;49961;43.970;22.868;2023-04-25T05:38:49;13.60;;;12.10;;
63807;SDS011;49961;43.970;22.868;2023-04-25T05:39:49;13.37;;;12.07;;
63807;SDS011;49961;43.970;22.868;2023-04-25T05:40:50;12.80;;;11.50;;
63807;SDS011;49961;43.970;22.868;2023-04-25T05:41:50;12.97;;;11.77;;
63807;SDS011;49961;43.970;22.868;2023-04-25T05:42:50;13.33;;;12.10;;
63807;SDS011;49961;43.970;22.868;2023-04-25T05:43:51;13.87;;;11.87;;
63807;SDS011;49961;43.970;22.868;2023-04-25T05:44:51;13.27;;;12.07;;
63807;SDS011;49961;43.970;22.868;2023-04-25T05:45:52;12.23;;;11.07;;
63807;SDS011;49961;43.970;22.868;2023-04-25T05:46:52;10.70;;;9.60;;
63807;SDS011;49961;43.970;22.868;2023-04-25T05:47:52;8.33;;;7.20;;
63807;SDS011;49961;43.970;22.868;2023-04-25T05:48:53;8.63;;;7.73;;
63807;SDS011;49961;43.970;22.868;2023-04-25T05:49:53;11.57;;;10.37;;